Time;durP1;ratioP1;P1;durP2;ratioP2;P2;SDS_P1;SDS_P2;PMS_P1;PMS_P2;Temp;Humidity;BMP_temperature;BMP_pressure;BME280_temperature;BME280_humidity;BME280_pressure;Samples;Min_cycle;Max_cycle;Signal;HPM_P1;HPM_P2
2023/04/21 00:00:07;;;;;;;38.72;23.05;;;;;;;11.53;100.00;100158.16;4975897;28;20026;-90
2023/04/21 00:02:38;;;;;;;39.00;22.98;;;;;;;11.47;100.00;100148.22;4975612;28;20090;-88
2023/04/21 00:05:06;;;;;;;43.65;24.30;;;;;;;11.58;100.00;100139.88;4975625;28;20035;-91
2023/04/21 00:07:32;;;;;;;40.45;24.80;;;;;;;11.52;100.00;100151.19;4977022;28;20061;-90
2023/04/21 00:09:58;;;;;;;41.35;23.38;;;;;;;11.52;100.00;100153.03;4995331;28;20051;-87
2023/04/21 00:12:24;;;;;;;42.67;25.02;;;;;;;11.60;100.00;100150.31;4994924;28;20046;-87
2023/04/21 00:14:49;;;;;;;44.20;24.95;;;;;;;11.49;100.00;100148.91;4980214;28;20046;-88
2023/04/21 00:17:15;;;;;;;40.33;24.88;;;;;;;11.41;100.00;100136.50;4975667;28;20027;-91
2023/04/21 00:19:41;;;;;;;41.28;25.05;;;;;;;11.49;100.00;100135.63;4974290;28;20039;-90
2023/04/21 00:22:10;;;;;;;38.08;25.08;;;;;;;11.54;100.00;100135.91;4975683;28;20034;-88
2023/04/21 00:24:36;;;;;;;38.53;23.45;;;;;;;11.62;100.00;100133.22;4973942;28;20035;-88
2023/04/21 00:27:02;;;;;;;40.45;23.33;;;;;;;11.60;100.00;100134.41;4974061;28;20098;-91
2023/04/21 00:29:30;;;;;;;34.95;22.15;;;;;;;11.61;100.00;100142.16;4975101;28;20038;-90
2023/04/21 00:31:56;;;;;;;39.00;22.88;;;;;;;11.63;100.00;100134.88;4973609;28;20046;-90
2023/04/21 00:34:22;;;;;;;40.55;22.95;;;;;;;11.61;100.00;100130.72;4973885;28;20047;-91
2023/04/21 00:36:51;;;;;;;34.83;22.45;;;;;;;11.58;100.00;100139.88;4975418;28;20043;-91
2023/04/21 00:39:16;;;;;;;40.22;22.95;;;;;;;11.53;100.00;100128.16;4975314;28;20117;-92
2023/04/21 00:41:42;;;;;;;38.97;22.60;;;;;;;11.53;100.00;100144.91;4975017;28;20062;-92
2023/04/21 00:44:09;;;;;;;38.33;22.98;;;;;;;11.47;100.00;100136.81;4973633;28;20034;-92
2023/04/21 00:46:36;;;;;;;35.58;20.27;;;;;;;11.47;100.00;100134.16;4974049;28;20046;-90
2023/04/21 00:49:05;;;;;;;37.55;21.75;;;;;;;11.40;100.00;100128.75;4973974;28;20493;-92
2023/04/21 00:51:33;;;;;;;32.45;21.45;;;;;;;11.49;100.00;100148.06;4957681;28;20029;-92
2023/04/21 00:54:01;;;;;;;37.78;21.38;;;;;;;11.39;100.00;100127.91;4973943;28;20444;-90
2023/04/21 00:56:31;;;;;;;34.30;21.75;;;;;;;11.37;100.00;100123.75;4974922;28;20042;-91
2023/04/21 00:59:01;;;;;;;37.88;21.58;;;;;;;11.48;100.00;100126.00;4973341;28;20062;-91
2023/04/21 01:01:36;;;;;;;35.63;20.77;;;;;;;11.33;100.00;100133.09;4973867;28;20465;-90
2023/04/21 01:04:03;;;;;;;38.38;21.15;;;;;;;11.38;100.00;100130.72;4975388;28;20035;-92
2023/04/21 01:06:35;;;;;;;38.67;20.73;;;;;;;11.34;100.00;100124.94;4975012;28;20045;-93
2023/04/21 01:09:05;;;;;;;36.67;21.13;;;;;;;11.37;100.00;100123.75;4973357;28;20046;-90
2023/04/21 01:11:31;;;;;;;36.72;20.75;;;;;;;11.40;100.00;100129.53;4973607;28;20050;-90
2023/04/21 01:13:56;;;;;;;32.10;20.65;;;;;;;11.43;100.00;100129.19;4974464;28;20030;-90
2023/04/21 01:16:23;;;;;;;35.97;19.77;;;;;;;11.52;100.00;100126.47;4974270;28;20497;-91
2023/04/21 01:18:52;;;;;;;33.30;20.45;;;;;;;11.43;100.00;100133.69;4956761;28;20088;-91
2023/04/21 01:21:18;;;;;;;31.10;20.52;;;;;;;11.51;100.00;100128.31;4975400;28;20163;-89
2023/04/21 01:23:44;;;;;;;34.22;19.05;;;;;;;11.46;100.00;100120.06;4985181;28;20019;-88
2023/04/21 01:26:10;;;;;;;33.30;20.58;;;;;;;11.38;100.00;100134.22;4989953;28;20046;-91
2023/04/21 01:28:36;;;;;;;37.17;21.08;;;;;;;11.39;100.00;100127.91;4973885;28;20433;-91
2023/04/21 01:31:04;;;;;;;38.00;21.40;;;;;;;11.41;100.00;100130.38;4957705;28;20094;-92
2023/04/21 01:33:30;;;;;;;32.22;20.50;;;;;;;11.57;100.00;100140.88;4974654;28;20034;-91
2023/04/21 01:36:00;;;;;;;35.83;20.63;;;;;;;11.43;100.00;100143.47;4973699;28;20093;-89
2023/04/21 01:38:25;;;;;;;35.15;19.42;;;;;;;11.46;100.00;100143.94;4979399;28;20035;-89
2023/04/21 01:40:53;;;;;;;34.63;20.98;;;;;;;11.40;100.00;100134.84;4962679;28;20401;-90
2023/04/21 01:43:23;;;;;;;33.33;19.95;;;;;;;11.46;100.00;100138.66;4974382;28;20524;-90
2023/04/21 01:45:49;;;;;;;32.78;19.50;;;;;;;11.52;100.00;100142.41;4975009;28;20038;-90
2023/04/21 01:48:14;;;;;;;32.22;20.25;;;;;;;11.55;100.00;100126.97;4974371;28;20089;-90
2023/04/21 01:50:40;;;;;;;33.55;19.58;;;;;;;11.54;100.00;100135.91;4973514;28;20070;-92
2023/04/21 01:53:08;;;;;;;33.80;20.25;;;;;;;11.54;100.00;100145.69;4973033;28;20030;-90
2023/04/21 01:55:34;;;;;;;34.33;20.38;;;;;;;11.51;100.00;100146.88;4972689;28;20367;-91
2023/04/21 01:58:00;;;;;;;32.70;19.60;;;;;;;11.55;100.00;100153.50;4975024;28;20505;-92
2023/04/21 02:00:28;;;;;;;34.88;20.73;;;;;;;11.51;100.00;100146.88;4976920;28;20035;-91
2023/04/21 02:02:55;;;;;;;31.90;18.80;;;;;;;11.49;100.00;100153.38;4977302;28;20027;-93
2023/04/21 02:05:21;;;;;;;33.70;19.75;;;;;;;11.49;100.00;100153.38;4976814;28;20501;-89
2023/04/21 02:07:46;;;;;;;32.00;19.15;;;;;;;11.47;100.00;100148.22;4976672;28;20042;-91
2023/04/21 02:10:13;;;;;;;30.63;18.73;;;;;;;11.57;100.00;100151.47;4977740;28;20121;-90
2023/04/21 02:12:41;;;;;;;31.45;19.15;;;;;;;11.59;100.00;100140.69;4976385;28;20077;-92
2023/04/21 02:15:10;;;;;;;32.60;18.83;;;;;;;11.61;100.00;100146.66;4976013;28;20031;-91
2023/04/21 02:17:36;;;;;;;29.30;18.80;;;;;;;11.48;100.00;100155.19;4976399;28;20085;-91
2023/04/21 02:20:03;;;;;;;40.60;20.50;;;;;;;11.37;100.00;100156.44;4977762;28;20042;-89
2023/04/21 02:22:30;;;;;;;31.58;18.88;;;;;;;11.49;100.00;100151.56;4976120;28;20513;-90
2023/04/21 02:24:55;;;;;;;33.63;19.02;;;;;;;11.49;100.00;100143.59;4977250;28;20023;-92
2023/04/21 02:27:21;;;;;;;34.80;20.40;;;;;;;11.45;100.00;100152.91;4977297;28;20448;-91
2023/04/21 02:29:46;;;;;;;32.25;19.95;;;;;;;11.37;100.00;100144.97;4977315;28;20066;-91
2023/04/21 02:32:14;;;;;;;34.95;19.52;;;;;;;11.51;100.00;100146.88;4977604;28;20140;-90
2023/04/21 02:34:40;;;;;;;32.42;19.92;;;;;;;11.43;100.00;100142.44;4976737;28;20038;-91
2023/04/21 02:37:06;;;;;;;35.08;19.48;;;;;;;11.56;100.00;100147.19;4977724;28;20389;-90
2023/04/21 02:39:32;;;;;;;31.17;19.27;;;;;;;11.59;100.00;100138.03;4977490;28;20026;-90
2023/04/21 02:41:57;;;;;;;35.85;20.45;;;;;;;11.53;100.00;100147.56;4976403;28;20054;-90
2023/04/21 02:44:23;;;;;;;33.17;19.88;;;;;;;11.61;100.00;100152.78;4976483;28;20050;-89
2023/04/21 02:46:48;;;;;;;37.67;19.73;;;;;;;11.66;100.00;100150.44;4976566;28;20123;-90
2023/04/21 02:49:14;;;;;;;29.35;18.98;;;;;;;11.59;100.00;100152.16;4977179;28;20026;-91
2023/04/21 02:51:40;;;;;;;30.15;18.58;;;;;;;11.68;100.00;100151.06;4976838;28;20108;-91
2023/04/21 02:54:05;;;;;;;32.78;20.13;;;;;;;11.59;100.00;100152.16;4977697;28;20030;-89
2023/04/21 02:57:08;;;;;;;31.85;18.77;;;;;;;11.71;100.00;100157.88;4977870;28;20505;-91
2023/04/21 02:59:34;;;;;;;;;;;;;;;11.48;100.00;100155.19;4977483;28;20067;-93
2023/04/21 03:01:59;;;;;;;36.78;19.70;;;;;;;11.46;100.00;100151.09;4976580;28;19929;-90
2023/04/21 03:04:25;;;;;;;32.70;18.85;;;;;;;11.72;100.00;100154.22;4978083;28;20476;-92
2023/04/21 03:06:54;;;;;;;33.33;20.05;;;;;;;11.54;100.00;100156.31;4976043;28;20046;-91
2023/04/21 03:09:20;;;;;;;31.95;19.13;;;;;;;11.50;100.00;100163.81;4978831;28;20034;-90
2023/04/21 03:11:46;;;;;;;30.13;19.17;;;;;;;11.73;100.00;100156.69;4977737;28;20050;-90
2023/04/21 03:14:12;;;;;;;30.25;18.25;;;;;;;11.72;100.00;100155.06;4977906;28;20042;-91
2023/04/21 03:16:37;;;;;;;29.55;19.15;;;;;;;11.75;100.00;100160.00;4980188;28;20023;-91
2023/04/21 03:19:06;;;;;;;28.98;18.23;;;;;;;11.70;100.00;100162.34;4981810;28;20070;-91
2023/04/21 03:21:37;;;;;;;32.78;18.63;;;;;;;11.51;100.00;100162.81;4995836;28;20062;-91
2023/04/21 03:24:03;;;;;;;32.90;20.15;;;;;;;11.55;100.00;100168.59;4996966;28;20090;-89
2023/04/21 03:26:28;;;;;;;34.53;19.58;;;;;;;11.51;100.00;100161.97;4995614;28;20062;-91
2023/04/21 03:28:54;;;;;;;32.20;19.77;;;;;;;11.49;100.00;100169.31;4979031;28;20034;-90
2023/04/21 03:31:20;;;;;;;34.97;20.42;;;;;;;11.48;100.00;100173.78;4992051;28;20031;-91
2023/04/21 03:33:45;;;;;;;35.92;21.08;;;;;;;11.57;100.00;100175.38;4990208;28;20094;-90
2023/04/21 03:36:11;;;;;;;33.83;19.23;;;;;;;11.83;100.00;100167.88;4988000;28;20524;-90
2023/04/21 03:38:37;;;;;;;33.42;18.75;;;;;;;11.68;100.00;100169.66;4987832;28;20035;-89
2023/04/21 03:41:04;;;;;;;37.70;19.95;;;;;;;11.69;100.00;100166.00;4988793;28;20041;-89
2023/04/21 03:43:29;;;;;;;33.88;21.33;;;;;;;11.54;100.00;100177.53;4991923;28;20037;-91
2023/04/21 03:45:55;;;;;;;34.38;20.52;;;;;;;11.49;100.00;100170.13;4994812;28;20521;-89
2023/04/21 03:48:20;;;;;;;36.05;19.52;;;;;;;11.64;100.00;100176.31;4992794;28;20027;-89
2023/04/21 03:50:46;;;;;;;30.95;19.55;;;;;;;11.59;100.00;100172.56;4990798;28;20133;-92
2023/04/21 03:53:11;;;;;;;31.95;19.55;;;;;;;11.62;100.00;100172.19;4995509;28;20508;-90
2023/04/21 03:55:37;;;;;;;35.22;20.15;;;;;;;11.56;100.00;100176.38;4993064;28;20041;-91
2023/04/21 03:58:03;;;;;;;41.08;19.60;;;;;;;11.57;100.00;100172.72;4990895;28;20062;-90
2023/04/21 04:00:28;;;;;;;34.53;20.13;;;;;;;11.58;100.00;100174.38;4980832;28;20039;-93
2023/04/21 04:02:54;;;;;;;31.88;19.77;;;;;;;11.62;100.00;100180.97;4976459;28;20038;-93
2023/04/21 04:06:01;;;;;;;32.72;18.95;;;;;;;11.53;100.00;100168.78;4983627;28;20085;-91
2023/04/21 04:08:30;;;;;;;31.75;20.15;;;;;;;11.59;100.00;100167.25;4996586;28;20049;-91
2023/04/21 04:10:56;;;;;;;34.90;19.80;;;;;;;11.50;100.00;100166.44;4982793;28;20054;-91
2023/04/21 04:13:23;;;;;;;39.65;20.27;;;;;;;11.59;100.00;100164.59;4999473;28;20034;-91
2023/04/21 04:15:49;;;;;;;30.00;19.38;;;;;;;11.41;100.00;100156.91;4997636;28;20035;-91
2023/04/21 04:18:15;;;;;;;31.27;19.45;;;;;;;11.42;100.00;100163.88;4996883;28;20042;-92
2023/04/21 04:20:41;;;;;;;32.65;19.75;;;;;;;11.47;100.00;100164.16;4997820;28;20047;-90
2023/04/21 04:23:13;;;;;;;31.55;19.77;;;;;;;11.39;100.00;100166.88;4978262;28;20027;-91
2023/04/21 04:25:42;;;;;;;34.20;20.02;;;;;;;11.51;100.00;100167.28;4979105;28;20039;-91
2023/04/21 04:28:11;;;;;;;24.85;15.23;;;;;;;11.43;100.00;100164.69;4978386;28;20043;-92
2023/04/21 04:30:37;;;;;;;34.13;19.63;;;;;;;11.54;100.00;100170.41;4977603;28;20040;-90
2023/04/21 04:33:04;;;;;;;33.92;21.50;;;;;;;11.45;100.00;100178.59;4977544;29;20039;-92
2023/04/21 04:35:32;;;;;;;36.78;21.63;;;;;;;11.46;100.00;100174.97;4976483;28;20011;-92
2023/04/21 04:38:17;;;;;;;40.60;21.35;;;;;;;11.35;100.00;100163.75;4978232;28;20062;-92
2023/04/21 04:40:44;;;;;;;39.78;21.73;;;;;;;11.33;100.00;100165.75;4970328;29;20050;-91
2023/04/21 04:43:10;;;;;;;36.75;22.00;;;;;;;11.41;100.00;100186.09;4945271;29;20043;-92
2023/04/21 04:45:39;;;;;;;36.80;21.50;;;;;;;11.46;100.00;100183.75;4961066;29;20039;-92
2023/04/21 04:48:05;;;;;;;34.35;20.27;;;;;;;11.41;100.00;100183.44;4958859;29;20055;-92
2023/04/21 04:50:31;;;;;;;32.50;20.38;;;;;;;11.56;100.00;100179.03;4959685;29;20142;-91
2023/04/21 04:52:56;;;;;;;34.85;20.80;;;;;;;11.53;100.00;100182.06;4965108;28;20059;-89
2023/04/21 04:55:25;;;;;;;32.88;18.42;;;;;;;11.62;100.00;100191.59;4959462;29;20102;-92
2023/04/21 04:57:50;;;;;;;29.25;19.40;;;;;;;11.74;100.00;100195.50;4956256;29;20039;-88
2023/04/21 05:00:17;;;;;;;35.38;20.17;;;;;;;11.63;100.00;100198.56;4940551;29;20401;-85
2023/04/21 05:02:43;;;;;;;34.30;20.55;;;;;;;11.56;100.00;100210.06;4962207;28;20039;-88
2023/04/21 05:05:08;;;;;;;35.15;20.98;;;;;;;11.62;100.00;100217.31;4964316;29;20082;-87
2023/04/21 05:07:34;;;;;;;37.05;22.10;;;;;;;11.54;100.00;100215.53;4970952;28;20027;-88
2023/04/21 05:10:01;;;;;;;47.38;24.35;;;;;;;11.65;100.00;100223.09;4967515;28;20494;-90
2023/04/21 05:12:33;;;;;;;36.75;22.85;;;;;;;11.54;100.00;100226.16;4962002;28;20356;-89
2023/04/21 05:14:58;;;;;;;40.40;23.77;;;;;;;11.61;100.00;100227.09;4960472;28;20027;-91
2023/04/21 05:17:24;;;;;;;41.38;24.02;;;;;;;11.59;100.00;100234.44;4959157;28;20545;-89
2023/04/21 05:19:50;;;;;;;44.85;24.55;;;;;;;11.64;100.00;100242.69;4961556;28;20470;-89
2023/04/21 05:22:15;;;;;;;39.53;22.42;;;;;;;11.67;100.00;100242.31;4958272;29;20482;-88
2023/04/21 05:24:42;;;;;;;39.53;23.38;;;;;;;11.79;100.00;100248.94;4960191;28;20031;-90
2023/04/21 05:27:08;;;;;;;46.50;23.92;;;;;;;11.59;100.00;100245.03;4958453;28;20035;-91
2023/04/21 05:29:37;;;;;;;43.05;24.92;;;;;;;11.63;100.00;100241.03;4958043;28;20037;-91
2023/04/21 05:32:02;;;;;;;36.72;23.75;;;;;;;11.64;100.00;100237.38;4957023;28;20031;-90
2023/04/21 05:34:28;;;;;;;39.75;24.00;;;;;;;11.62;100.00;100234.06;4956004;29;20090;-89
2023/04/21 05:36:53;;;;;;;39.03;23.42;;;;;;;11.69;100.00;100239.50;4961779;28;20118;-86
2023/04/21 05:39:22;;;;;;;39.75;24.35;;;;;;;11.66;100.00;100243.34;4960959;28;20174;-91
2023/04/21 05:41:51;;;;;;;40.78;24.63;;;;;;;11.86;100.00;100247.19;4959479;29;20044;-90
2023/04/21 05:44:17;;;;;;;46.72;24.48;;;;;;;11.83;100.00;100250.19;4958512;29;20036;-91
2023/04/21 05:46:46;;;;;;;40.20;24.00;;;;;;;11.87;100.00;100243.53;4967141;29;20039;-91
2023/04/21 05:49:16;;;;;;;44.13;23.85;;;;;;;12.00;100.00;100242.16;4963341;29;20368;-92
2023/04/21 05:51:45;;;;;;;39.33;22.77;;;;;;;12.17;100.00;100239.16;4961364;29;20126;-90
2023/04/21 05:54:11;;;;;;;43.80;23.20;;;;;;;12.19;100.00;100241.66;4959337;29;20043;-89
2023/04/21 05:56:36;;;;;;;37.97;21.90;;;;;;;12.15;100.00;100235.88;4958262;29;20023;-89
2023/04/21 05:59:02;;;;;;;39.13;22.40;;;;;;;12.11;100.00;100236.38;4962361;28;20051;-91
2023/04/21 06:01:28;;;;;;;33.08;22.27;;;;;;;12.13;100.00;100237.06;4963352;28;20066;-90
2023/04/21 06:03:53;;;;;;;39.22;21.60;;;;;;;12.38;100.00;100234.00;4959868;28;20035;-91
2023/04/21 06:06:19;;;;;;;35.80;21.52;;;;;;;12.90;100.00;100238.41;4961882;28;20039;-92
2023/04/21 06:08:45;;;;;;;36.92;21.40;;;;;;;13.12;100.00;100247.34;4942003;29;20027;-91
2023/04/21 06:11:11;;;;;;;35.65;20.95;;;;;;;13.12;100.00;100255.34;4958363;29;20071;-92
2023/04/21 06:13:36;;;;;;;36.42;21.08;;;;;;;13.15;100.00;100241.66;4960077;28;20455;-91
2023/04/21 06:16:02;;;;;;;36.20;21.27;;;;;;;13.30;100.00;100245.13;4959382;29;20071;-92
2023/04/21 06:18:32;;;;;;;32.90;20.88;;;;;;;13.54;100.00;100258.09;4960374;29;20051;-92
2023/04/21 06:20:57;;;;;;;35.55;20.58;;;;;;;13.59;100.00;100253.03;4962646;28;20042;-89
2023/04/21 06:23:26;;;;;;;36.50;22.67;;;;;;;13.42;100.00;100262.28;4957857;29;20027;-91
2023/04/21 06:25:59;;;;;;;34.28;21.05;;;;;;;13.32;100.00;100261.75;4944089;29;20047;-90
2023/04/21 06:28:25;;;;;;;37.13;22.42;;;;;;;13.14;100.00;100263.94;4959955;28;20401;-88
2023/04/21 06:30:50;;;;;;;35.95;21.58;;;;;;;12.98;100.00;100264.09;4943721;29;20122;-91
2023/04/21 06:33:17;;;;;;;37.88;21.13;;;;;;;13.26;100.00;100257.13;4961427;29;20035;-90
2023/04/21 06:35:46;;;;;;;34.55;21.08;;;;;;;13.43;100.00;100255.91;4962817;29;20055;-91
2023/04/21 06:38:12;;;;;;;32.60;21.00;;;;;;;13.58;100.00;100269.22;4960227;29;20193;-89
2023/04/21 06:40:37;;;;;;;38.80;22.05;;;;;;;13.54;100.00;100263.44;4963275;28;20035;-90
2023/04/21 06:43:03;;;;;;;40.15;23.35;;;;;;;13.23;100.00;100273.47;4965166;28;20048;-90
2023/04/21 06:45:29;;;;;;;35.55;21.38;;;;;;;13.38;100.00;100271.63;4969146;28;20462;-90
2023/04/21 06:47:54;;;;;;;45.63;24.70;;;;;;;13.19;100.00;100266.91;4969314;28;20086;-89
2023/04/21 06:50:26;;;;;;;39.67;22.90;;;;;;;13.02;100.00;100265.41;4970974;29;20099;-90
2023/04/21 06:52:54;;;;;;;40.78;22.92;;;;;;;13.10;100.00;100268.81;4972017;29;20095;-91
2023/04/21 06:55:26;;;;;;;37.10;21.02;;;;;;;13.20;100.00;100268.53;4979982;23;20039;-88
2023/04/21 06:58:00;;;;;;;39.85;20.08;;;;;;;13.30;100.00;100279.72;4976415;28;20062;-88
2023/04/21 07:00:29;;;;;;;45.00;22.48;;;;;;;13.03;100.00;100278.50;4974085;28;20063;-88
2023/04/21 07:02:55;;;;;;;41.53;21.92;;;;;;;13.07;100.00;100274.47;4971030;29;20027;-90
2023/04/21 07:05:22;;;;;;;43.30;24.17;;;;;;;12.87;100.00;100273.38;4974102;29;20041;-91
2023/04/21 07:07:58;;;;;;;43.53;23.20;;;;;;;13.19;100.00;100272.22;4972238;29;20054;-90
2023/04/21 07:10:42;;;;;;;39.83;23.45;;;;;;;13.31;100.00;100268.06;4972815;29;20066;-91
2023/04/21 07:13:26;;;;;;;;;;;;;;;13.29;100.00;100278.09;4967440;28;20155;-89
2023/04/21 07:16:10;;;;;;;44.08;24.13;;;;;;;13.33;100.00;100274.00;4972147;29;19918;-90
2023/04/21 07:18:38;;;;;;;46.67;23.50;;;;;;;13.66;100.00;100275.22;4996971;23;20043;-89
2023/04/21 07:21:35;;;;;;;42.03;23.55;;;;;;;13.63;100.00;100280.94;4992277;28;20062;-90
2023/04/21 07:24:06;;;;;;;41.78;23.45;;;;;;;13.91;100.00;100297.88;4983043;28;20530;-90
2023/04/21 07:26:33;;;;;;;38.67;21.63;;;;;;;14.52;100.00;100282.22;4978285;28;20118;-88
2023/04/21 07:28:58;;;;;;;37.10;22.45;;;;;;;14.57;100.00;100282.50;4977302;28;20087;-91
2023/04/21 07:31:24;;;;;;;37.10;21.65;;;;;;;15.23;100.00;100290.91;4977403;28;20074;-89
2023/04/21 07:33:50;;;;;;;34.90;21.20;;;;;;;15.21;100.00;100303.66;4981047;28;20042;-92
2023/04/21 07:36:16;;;;;;;35.97;21.27;;;;;;;15.46;100.00;100299.44;4978335;28;20035;-91
2023/04/21 07:38:42;;;;;;;36.33;21.13;;;;;;;15.15;100.00;100305.25;4977133;28;20058;-89
2023/04/21 07:41:11;;;;;;;36.22;21.90;;;;;;;14.72;100.00;100303.72;4984140;28;20035;-85
2023/04/21 07:43:37;;;;;;;36.25;21.17;;;;;;;14.82;100.00;100302.38;4974946;28;20121;-87
2023/04/21 07:46:03;;;;;;;38.65;21.55;;;;;;;14.94;100.00;100319.50;4975933;28;20469;-83
2023/04/21 07:48:28;;;;;;;34.00;20.30;;;;;;;15.00;100.00;100317.88;4976144;28;20035;-85
2023/04/21 07:50:54;;;;;;;35.53;20.38;;;;;;;14.53;100.00;100313.22;4975091;28;20110;-83
2023/04/21 07:53:19;;;;;;;35.55;20.30;;;;;;;14.50;100.00;100313.63;4977503;28;20034;-88
2023/04/21 07:55:45;;;;;;;42.67;22.85;;;;;;;14.72;100.00;100315.22;4977725;28;20130;-86
2023/04/21 07:58:12;;;;;;;34.08;19.98;;;;;;;14.58;100.00;100318.00;4977474;28;20562;-86
2023/04/21 08:00:38;;;;;;;35.97;20.50;;;;;;;14.27;100.00;100315.63;4976202;28;20022;-90
2023/04/21 08:03:03;;;;;;;34.97;21.42;;;;;;;14.16;100.00;100316.13;4976684;28;20030;-87
2023/04/21 08:05:30;;;;;;;42.15;21.85;;;;;;;14.16;100.00;100319.63;4975960;28;20046;-88
2023/04/21 08:07:56;;;;;;;33.17;20.70;;;;;;;14.27;100.00;100313.78;4974547;28;20406;-86
2023/04/21 08:10:21;;;;;;;42.13;22.27;;;;;;;14.36;100.00;100317.16;4977960;28;20038;-88
2023/04/21 08:12:47;;;;;;;39.90;21.27;;;;;;;14.70;100.00;100327.09;4977776;28;20117;-85
2023/04/21 08:15:12;;;;;;;34.70;21.45;;;;;;;14.59;100.00;100324.94;4977585;28;20042;-85
2023/04/21 08:17:38;;;;;;;39.00;22.20;;;;;;;14.45;100.00;100324.84;4975904;28;20026;-89
2023/04/21 08:20:04;;;;;;;34.65;20.88;;;;;;;14.72;100.00;100325.88;4975318;28;20122;-88
2023/04/21 08:22:30;;;;;;;38.28;22.67;;;;;;;14.46;100.00;100320.34;4978385;28;20046;-86
2023/04/21 08:24:55;;;;;;;38.08;22.75;;;;;;;14.62;100.00;100328.06;4976387;28;20039;-83
2023/04/21 08:27:21;;;;;;;36.25;22.35;;;;;;;14.83;100.00;100336.03;4979100;28;20312;-83
2023/04/21 08:29:46;;;;;;;41.85;23.00;;;;;;;14.95;100.00;100334.47;4961284;28;20066;-89
2023/04/21 08:32:12;;;;;;;38.00;22.60;;;;;;;14.69;100.00;100334.28;4974999;28;20034;-88
2023/04/21 08:34:37;;;;;;;33.20;20.77;;;;;;;14.90;100.00;100339.59;4974079;28;20038;-87
2023/04/21 08:37:03;;;;;;;40.70;21.95;;;;;;;14.73;100.00;100332.88;4970663;28;20039;-86
2023/04/21 08:39:28;;;;;;;36.47;20.83;;;;;;;15.22;100.00;100331.97;4966059;28;20929;-87
2023/04/21 08:41:55;;;;;;;34.72;20.60;;;;;;;16.30;100.00;100345.38;4976136;28;20038;-92
2023/04/21 08:44:20;;;;;;;31.50;19.98;;;;;;;17.06;100.00;100341.28;4975610;28;20043;-89
2023/04/21 08:46:50;;;;;;;33.03;19.13;;;;;;;17.89;100.00;100345.81;4975728;28;20093;-89
2023/04/21 08:49:18;;;;;;;32.95;19.05;;;;;;;18.49;100.00;100355.09;4975775;28;20555;-86
2023/04/21 08:51:45;;;;;;;30.33;19.15;;;;;;;18.47;100.00;100349.16;4974722;28;20499;-91
2023/04/21 08:54:11;;;;;;;25.50;17.00;;;;;;;18.53;100.00;100359.03;4980292;28;20046;-86
2023/04/21 08:56:37;;;;;;;27.88;16.88;;;;;;;18.24;100.00;100342.69;4984667;28;20067;-86
2023/04/21 08:59:03;;;;;;;27.33;17.63;;;;;;;18.47;100.00;100359.06;4984045;28;20043;-85
2023/04/21 09:01:29;;;;;;;30.52;18.05;;;;;;;18.45;100.00;100353.94;4980830;28;20029;-85
2023/04/21 09:04:15;;;;;;;30.30;17.23;;;;;;;19.19;100.00;100360.34;4983058;28;20058;-86
2023/04/21 09:06:44;;;;;;;25.23;16.13;;;;;;;19.20;100.00;100348.53;4977269;28;20037;-86
2023/04/21 09:09:10;;;;;;;25.88;16.50;;;;;;;19.67;100.00;100355.91;4975459;28;20071;-88
2023/04/21 09:11:36;;;;;;;29.80;17.30;;;;;;;19.40;100.00;100354.53;4975530;28;20069;-90
2023/04/21 09:14:01;;;;;;;28.88;17.10;;;;;;;19.43;100.00;100365.69;4974201;28;20039;-89
2023/04/21 09:16:31;;;;;;;25.90;17.40;;;;;;;18.72;100.00;100365.31;4975471;28;20118;-89
2023/04/21 09:18:59;;;;;;;26.92;17.73;;;;;;;17.82;100.00;100345.00;4975307;28;20051;-87
2023/04/21 09:21:27;;;;;;;27.80;16.92;;;;;;;18.10;100.00;100346.53;4975074;28;20034;-90
2023/04/21 09:23:55;;;;;;;27.65;16.98;;;;;;;18.46;100.00;100346.69;4974802;28;20035;-89
2023/04/21 09:26:21;;;;;;;26.33;16.75;;;;;;;18.69;100.00;100343.44;4976356;28;20387;-86
2023/04/21 09:28:48;;;;;;;28.17;18.10;;;;;;;18.36;100.00;100347.16;4966426;28;20069;-87
2023/04/21 09:31:16;;;;;;;32.80;18.58;;;;;;;18.34;100.00;100353.78;4957802;28;20035;-86
2023/04/21 09:33:51;;;;;;;30.77;17.30;;;;;;;18.29;100.00;100345.56;4957457;28;20042;-89
2023/04/21 09:36:36;;;;;;;35.92;18.42;;;;;;;17.63;100.00;100356.63;4959570;28;20031;-86
2023/04/21 09:39:03;;;;;;;31.40;18.08;;;;;;;17.42;100.00;100348.84;4963765;28;20039;-83
2023/04/21 09:41:32;;;;;;;28.35;18.52;;;;;;;16.88;100.00;100357.16;4966149;29;20035;-84
2023/04/21 09:44:03;;;;;;;28.40;18.02;;;;;;;17.04;100.00;100352.19;4960270;29;20028;-87
2023/04/21 09:46:32;;;;;;;31.90;18.52;;;;;;;16.88;100.00;100349.13;4961678;28;20039;-88
2023/04/21 09:49:00;;;;;;;31.60;18.23;;;;;;;17.16;100.00;100352.41;4962913;28;20024;-86
2023/04/21 09:51:26;;;;;;;29.45;18.00;;;;;;;16.99;100.00;100368.06;4961761;29;20039;-87
2023/04/21 09:53:58;;;;;;;24.42;15.77;;;;;;;16.67;100.00;100360.84;4959555;28;20091;-88
2023/04/21 09:56:27;;;;;;;;;;;;;;;16.70;100.00;100355.13;4958427;29;20474;-86
2023/04/21 09:58:56;;;;;;;24.33;16.23;;;;;;;16.72;100.00;100358.41;4958999;29;20301;-88
2023/04/21 10:01:25;;;;;;;29.67;15.35;;;;;;;17.05;100.00;100353.84;4960099;28;20039;-88
2023/04/21 10:03:52;;;;;;;35.50;16.75;;;;;;;17.53;100.00;100350.88;4960154;29;20047;-87
2023/04/21 10:06:18;;;;;;;26.77;16.90;;;;;;;17.43;100.00;100369.25;4958706;28;20124;-87
2023/04/21 10:08:44;;;;;;;27.75;17.02;;;;;;;17.32;100.00;100364.53;4956540;29;20035;-90
2023/04/21 10:11:11;;;;;;;30.20;17.80;;;;;;;16.91;100.00;100362.91;4957870;28;20035;-89
2023/04/21 10:13:38;;;;;;;27.23;16.92;;;;;;;16.82;100.00;100364.16;4957007;28;20047;-90
2023/04/21 10:16:06;;;;;;;29.20;17.83;;;;;;;16.87;100.00;100366.25;4954648;29;20498;-89
2023/04/21 10:18:38;;;;;;;28.88;17.13;;;;;;;16.98;100.00;100363.75;4958173;28;20042;-89
2023/04/21 10:21:10;;;;;;;30.33;16.80;;;;;;;17.74;100.00;100355.97;4961236;28;20114;-88
2023/04/21 10:23:38;;;;;;;22.80;12.63;;;;;;;18.10;100.00;100355.38;4958227;28;20072;-88
2023/04/21 10:26:07;;;;;;;27.10;15.65;;;;;;;18.48;100.00;100366.91;4957883;28;20044;-87
2023/04/21 10:28:52;;;;;;;28.67;17.67;;;;;;;18.24;100.00;100369.53;4957879;28;20043;-89
2023/04/21 10:31:34;;;;;;;25.75;16.50;;;;;;;17.62;100.00;100365.72;4958351;28;20082;-91
2023/04/21 10:34:12;;;;;;;31.20;15.82;;;;;;;17.49;100.00;100355.00;4958141;28;20086;-90
2023/04/21 10:36:52;;;;;;;25.42;15.05;;;;;;;17.02;100.00;100362.31;4956303;29;20506;-89
2023/04/21 10:39:32;;;;;;;28.75;15.50;;;;;;;16.89;100.00;100354.28;4958864;28;20097;-89
2023/04/21 10:42:19;;;;;;;23.70;14.88;;;;;;;16.98;100.00;100342.31;4957908;28;20051;-89
2023/04/21 10:44:57;;;;;;;22.60;12.82;;;;;;;16.95;100.00;100356.13;4958919;28;20478;-88
2023/04/21 10:47:36;;;;;;;20.10;13.68;;;;;;;16.87;100.00;100345.63;4958821;28;20047;-88
2023/04/21 10:50:27;;;;;;;24.35;15.57;;;;;;;17.41;100.00;100342.66;4958637;29;20067;-89
2023/04/21 10:53:12;;;;;;;19.60;12.80;;;;;;;18.13;100.00;100340.72;4957691;29;20054;-89
2023/04/21 10:55:38;;;;;;;18.55;11.65;;;;;;;18.69;100.00;100352.34;4959332;29;20041;-88
2023/04/21 10:58:07;;;;;;;18.75;12.40;;;;;;;18.44;100.00;100332.66;4959989;29;20030;-91
2023/04/21 11:00:36;;;;;;;22.55;13.50;;;;;;;19.04;100.00;100344.56;4959292;28;20088;-89
2023/04/21 11:03:04;;;;;;;20.10;11.57;;;;;;;19.10;100.00;100351.75;4958182;29;20031;-89
2023/04/21 11:05:35;;;;;;;21.13;12.63;;;;;;;19.19;100.00;100336.97;4963310;29;20095;-89